createdAt,value
2023-05-19T00:00:02.150Z,9.75
2023-05-19T00:02:33.770Z,9.67
2023-05-19T00:05:03.749Z,9.60
2023-05-19T00:07:32.659Z,9.56
2023-05-19T00:09:59.727Z,9.50
2023-05-19T00:12:27.131Z,9.46
2023-05-19T00:14:54.149Z,9.41
2023-05-19T00:17:21.288Z,9.35
2023-05-19T00:19:48.014Z,9.33
2023-05-19T00:22:15.415Z,9.36
2023-05-19T00:24:42.154Z,9.38
2023-05-19T00:27:08.874Z,9.36
2023-05-19T00:29:35.587Z,9.36
2023-05-19T00:32:02.282Z,9.34
2023-05-19T00:34:29.027Z,9.37
2023-05-19T00:36:55.695Z,9.36
2023-05-19T00:39:22.344Z,9.35
2023-05-19T00:41:49.047Z,9.27
2023-05-19T00:44:15.734Z,9.19
2023-05-19T00:46:42.446Z,9.11
2023-05-19T00:49:09.143Z,9.07
2023-05-19T00:51:37.124Z,8.98
2023-05-19T00:54:04.281Z,8.98
2023-05-19T00:56:31.812Z,8.95
2023-05-19T00:58:59.403Z,8.89
2023-05-19T01:01:27.073Z,8.87
2023-05-19T01:06:23.380Z,8.83
2023-05-19T01:08:51.715Z,8.78
2023-05-19T01:11:18.423Z,8.72
2023-05-19T01:13:45.715Z,8.70
2023-05-19T01:16:24.474Z,8.69
2023-05-19T01:19:02.216Z,8.68
2023-05-19T01:22:07.009Z,8.63
2023-05-19T01:24:59.693Z,8.62
2023-05-19T01:27:59.035Z,8.60
2023-05-19T01:30:40.736Z,8.56
2023-05-19T01:33:09.950Z,8.54
2023-05-19T01:35:39.164Z,8.51
2023-05-19T01:38:08.716Z,8.47
2023-05-19T01:40:37.268Z,8.44
2023-05-19T01:43:04.820Z,8.40
2023-05-19T01:45:33.704Z,8.31
2023-05-19T01:48:03.567Z,8.30
2023-05-19T01:50:31.509Z,8.34
2023-05-19T01:52:59.046Z,8.32
2023-05-19T01:55:25.865Z,8.30
2023-05-19T01:58:18.552Z,8.27
2023-05-19T02:01:03.166Z,8.23
2023-05-19T02:03:47.728Z,8.21
2023-05-19T02:06:39.293Z,8.19
2023-05-19T02:09:16.074Z,8.15
2023-05-19T02:12:24.912Z,8.08
2023-05-19T02:15:15.172Z,7.98
2023-05-19T02:17:48.388Z,7.96
2023-05-19T02:20:15.689Z,7.98
2023-05-19T02:22:42.781Z,7.94
2023-05-19T02:25:10.455Z,7.94
2023-05-19T02:27:38.490Z,7.96
2023-05-19T02:30:06.585Z,7.98
2023-05-19T02:32:33.577Z,7.97
2023-05-19T02:35:00.559Z,7.98
2023-05-19T02:37:28.695Z,8.04
2023-05-19T02:39:55.961Z,8.10
2023-05-19T02:42:22.807Z,8.13
2023-05-19T02:44:49.879Z,8.11
2023-05-19T02:47:16.608Z,8.04
2023-05-19T02:49:44.264Z,8.02
2023-05-19T02:52:12.207Z,7.97
2023-05-19T02:54:39.029Z,7.99
2023-05-19T02:57:06.875Z,7.99
2023-05-19T02:59:33.634Z,8.01
2023-05-19T03:02:01.887Z,8.02
2023-05-19T03:04:29.879Z,7.98
2023-05-19T03:06:57.825Z,8.00
2023-05-19T03:09:24.661Z,7.99
2023-05-19T03:11:51.395Z,7.98
2023-05-19T03:14:18.800Z,7.93
2023-05-19T03:16:45.751Z,7.94
2023-05-19T03:19:12.828Z,7.93
2023-05-19T03:21:39.548Z,7.94
2023-05-19T03:24:06.771Z,7.94
2023-05-19T03:26:33.548Z,7.92
2023-05-19T03:29:00.263Z,7.93
2023-05-19T03:31:27.147Z,7.93
2023-05-19T03:33:53.862Z,7.94
2023-05-19T03:36:22.149Z,7.95
2023-05-19T03:38:49.018Z,7.98
2023-05-19T03:41:15.682Z,7.99
2023-05-19T03:43:42.358Z,7.98
2023-05-19T03:46:09.041Z,8.01
2023-05-19T03:48:35.722Z,8.01
2023-05-19T03:51:02.366Z,8.06
2023-05-19T03:53:30.376Z,8.08
2023-05-19T03:55:57.098Z,8.13
2023-05-19T03:58:24.222Z,8.17
2023-05-19T04:00:51.112Z,8.20
2023-05-19T04:03:17.912Z,8.26
2023-05-19T04:05:46.102Z,8.31
2023-05-19T04:08:12.824Z,8.38
2023-05-19T04:10:39.502Z,8.45
2023-05-19T04:13:06.272Z,8.53
2023-05-19T04:15:33.036Z,8.61
2023-05-19T04:17:59.772Z,8.68
2023-05-19T04:20:26.493Z,8.76
2023-05-19T04:22:53.194Z,8.84
2023-05-19T04:25:20.385Z,8.92
2023-05-19T04:27:48.402Z,8.99
2023-05-19T04:30:22.189Z,9.12
2023-05-19T04:32:52.107Z,9.25
2023-05-19T04:35:19.609Z,9.36
2023-05-19T04:37:46.480Z,9.48
2023-05-19T04:40:13.606Z,9.60
2023-05-19T04:42:41.571Z,9.73
2023-05-19T04:45:09.847Z,9.84
2023-05-19T04:47:39.511Z,9.92
2023-05-19T04:50:07.359Z,10.05
2023-05-19T04:52:34.088Z,10.16
2023-05-19T04:55:00.834Z,10.26
2023-05-19T04:57:27.478Z,10.37
2023-05-19T04:59:59.886Z,10.46
2023-05-19T05:02:28.188Z,10.56
2023-05-19T05:04:56.661Z,10.68
2023-05-19T05:07:23.955Z,10.78
2023-05-19T05:09:51.045Z,10.88
2023-05-19T05:12:19.125Z,10.96
2023-05-19T05:14:46.090Z,11.07
2023-05-19T05:17:13.807Z,11.13
2023-05-19T05:19:40.872Z,11.22
2023-05-19T05:22:07.905Z,11.33
2023-05-19T05:24:34.940Z,11.44
2023-05-19T05:27:01.775Z,11.52
2023-05-19T05:29:28.442Z,11.61
2023-05-19T05:31:55.130Z,11.71
2023-05-19T05:34:21.821Z,11.77
2023-05-19T05:36:48.509Z,11.84
2023-05-19T05:39:15.175Z,11.93
2023-05-19T05:41:41.841Z,12.00
2023-05-19T05:44:08.578Z,12.08
2023-05-19T05:46:35.297Z,12.18
2023-05-19T05:49:02.262Z,12.26
2023-05-19T05:51:29.180Z,12.35
2023-05-19T05:53:56.673Z,12.41
2023-05-19T05:56:23.704Z,12.49
2023-05-19T05:58:50.718Z,12.57
2023-05-19T06:01:17.926Z,12.66
2023-05-19T06:03:45.137Z,12.76
2023-05-19T06:06:12.372Z,12.85
2023-05-19T06:08:39.082Z,12.94
2023-05-19T06:11:09.346Z,13.04
2023-05-19T06:13:36.522Z,13.10
2023-05-19T06:16:03.777Z,13.15
2023-05-19T06:18:30.624Z,13.24
2023-05-19T06:20:57.361Z,13.32
2023-05-19T06:23:25.262Z,13.40
2023-05-19T06:25:52.013Z,13.48
2023-05-19T06:28:18.713Z,13.56
2023-05-19T06:30:45.378Z,13.65
2023-05-19T06:33:12.251Z,13.72
2023-05-19T06:35:39.048Z,13.79
2023-05-19T06:38:05.774Z,13.86
2023-05-19T06:40:32.739Z,13.92
2023-05-19T06:42:59.556Z,13.97
2023-05-19T06:45:26.618Z,14.03
2023-05-19T06:47:54.485Z,14.06
2023-05-19T06:50:21.267Z,14.11
2023-05-19T06:52:47.939Z,14.16
2023-05-19T06:55:14.703Z,14.19
2023-05-19T06:57:41.419Z,14.25
2023-05-19T07:00:17.070Z,14.34
2023-05-19T07:02:45.560Z,14.39
2023-05-19T07:05:12.448Z,14.43
2023-05-19T07:07:39.133Z,14.49
2023-05-19T07:10:06.492Z,14.58
2023-05-19T07:12:33.217Z,14.68
2023-05-19T07:14:59.911Z,14.78
2023-05-19T07:17:26.675Z,14.87
2023-05-19T07:19:53.358Z,14.96
2023-05-19T07:22:20.075Z,15.02
2023-05-19T07:24:46.826Z,15.08
2023-05-19T07:27:13.467Z,15.11
2023-05-19T07:29:40.124Z,15.19
2023-05-19T07:32:07.206Z,15.29
2023-05-19T07:34:34.026Z,15.38
2023-05-19T07:37:00.862Z,15.47
2023-05-19T07:39:29.749Z,15.53
2023-05-19T07:41:57.272Z,15.59
2023-05-19T07:44:24.022Z,15.67
2023-05-19T07:46:50.794Z,15.73
2023-05-19T07:49:17.505Z,15.81
2023-05-19T07:51:44.300Z,15.80
2023-05-19T07:54:10.972Z,15.80
2023-05-19T07:56:37.700Z,15.82
2023-05-19T07:59:04.905Z,15.87
2023-05-19T08:01:32.497Z,15.93
2023-05-19T08:03:59.684Z,15.95
2023-05-19T08:06:26.502Z,15.97
2023-05-19T08:08:54.322Z,16.02
2023-05-19T08:11:21.676Z,16.08
2023-05-19T08:13:49.454Z,16.17
2023-05-19T08:16:16.609Z,16.20
2023-05-19T08:18:43.841Z,16.24
2023-05-19T08:21:10.610Z,16.27
2023-05-19T08:23:37.570Z,16.33
2023-05-19T08:26:04.685Z,16.34
2023-05-19T08:28:31.588Z,16.39
2023-05-19T08:30:58.450Z,16.50
2023-05-19T08:33:25.289Z,16.62
2023-05-19T08:35:51.968Z,16.71
2023-05-19T08:38:18.648Z,16.78
2023-05-19T08:40:48.473Z,16.87
2023-05-19T08:43:15.594Z,16.92
2023-05-19T08:45:46.656Z,17.01
2023-05-19T08:48:14.730Z,17.08
2023-05-19T08:50:47.532Z,17.13
2023-05-19T08:53:34.100Z,17.14
2023-05-19T08:56:16.480Z,17.13
2023-05-19T08:58:44.769Z,17.11
2023-05-19T09:01:16.801Z,17.15
2023-05-19T09:03:45.784Z,17.19
2023-05-19T09:06:13.234Z,17.29
2023-05-19T09:08:41.630Z,17.41
2023-05-19T09:11:11.820Z,17.46
2023-05-19T09:13:39.139Z,17.52
2023-05-19T09:16:06.668Z,17.62
2023-05-19T09:18:34.021Z,17.70
2023-05-19T09:21:03.194Z,17.74
2023-05-19T09:23:33.645Z,17.74
2023-05-19T09:26:07.619Z,17.80
2023-05-19T09:28:36.502Z,17.89
2023-05-19T09:31:08.874Z,17.98
2023-05-19T09:33:42.835Z,18.09
2023-05-19T09:36:11.698Z,18.25
2023-05-19T09:38:39.952Z,18.34
2023-05-19T09:41:07.760Z,18.46
2023-05-19T09:43:35.544Z,18.58
2023-05-19T09:46:07.314Z,18.69
2023-05-19T09:48:36.610Z,18.69
2023-05-19T09:51:10.316Z,18.75
2023-05-19T09:53:37.331Z,18.83
2023-05-19T09:56:04.300Z,19.00
2023-05-19T09:58:37.477Z,19.09
2023-05-19T10:01:04.852Z,19.02
2023-05-19T10:03:35.275Z,19.04
2023-05-19T10:06:04.432Z,19.16
2023-05-19T10:08:33.562Z,19.22
2023-05-19T10:11:01.048Z,19.32
2023-05-19T10:13:30.006Z,19.41
2023-05-19T10:15:59.646Z,19.53
2023-05-19T10:18:30.253Z,19.60
2023-05-19T10:20:58.182Z,19.70
2023-05-19T10:23:25.607Z,19.83
2023-05-19T10:25:56.112Z,19.96
2023-05-19T10:28:28.276Z,20.05
2023-05-19T10:31:00.546Z,20.12
2023-05-19T10:33:55.789Z,20.21
2023-05-19T10:36:48.710Z,20.24
2023-05-19T10:39:42.781Z,20.41
2023-05-19T10:42:38.367Z,20.50
2023-05-19T10:45:20.145Z,20.67
2023-05-19T10:47:46.946Z,20.82
2023-05-19T10:50:13.919Z,20.95
2023-05-19T10:52:40.769Z,21.03
2023-05-19T10:55:09.086Z,21.09
2023-05-19T10:57:36.860Z,20.93
2023-05-19T11:00:24.924Z,20.82
2023-05-19T11:02:56.381Z,20.82
2023-05-19T11:05:29.263Z,20.75
2023-05-19T11:08:07.914Z,20.81
2023-05-19T11:10:34.861Z,20.92
2023-05-19T11:13:01.653Z,21.00
2023-05-19T11:15:28.843Z,21.08
2023-05-19T11:17:56.038Z,21.06
2023-05-19T11:20:28.292Z,21.06
2023-05-19T11:23:04.176Z,21.15
2023-05-19T11:25:47.549Z,21.22
2023-05-19T11:28:19.913Z,21.29
2023-05-19T11:30:51.978Z,21.27
2023-05-19T11:33:20.467Z,21.38
2023-05-19T11:35:51.244Z,21.40
2023-05-19T11:38:19.581Z,21.42
2023-05-19T11:40:47.798Z,21.44
2023-05-19T11:43:14.448Z,21.53
2023-05-19T11:45:41.496Z,21.64
2023-05-19T11:48:12.533Z,21.77
2023-05-19T11:50:41.403Z,21.84
2023-05-19T11:53:08.480Z,21.82
2023-05-19T11:55:35.150Z,21.78
2023-05-19T11:58:04.532Z,21.76
2023-05-19T12:00:37.770Z,21.70
2023-05-19T12:03:05.144Z,21.67
2023-05-19T12:05:36.087Z,21.69
2023-05-19T12:08:06.399Z,21.77
2023-05-19T12:10:36.565Z,21.81
2023-05-19T12:13:03.435Z,21.91
2023-05-19T12:15:32.220Z,22.06
2023-05-19T12:18:01.595Z,22.20
2023-05-19T12:20:32.507Z,22.30
2023-05-19T12:23:00.805Z,22.41
2023-05-19T12:25:29.208Z,22.56
2023-05-19T12:28:00.407Z,22.73
2023-05-19T12:30:32.559Z,22.81
2023-05-19T12:33:00.095Z,22.98
2023-05-19T12:35:29.031Z,23.10
2023-05-19T12:37:56.199Z,23.28
2023-05-19T12:40:23.080Z,23.51
2023-05-19T12:42:52.166Z,23.72
2023-05-19T12:45:22.355Z,23.89
2023-05-19T12:47:50.308Z,23.96
2023-05-19T12:50:17.152Z,24.06
2023-05-19T12:52:46.957Z,24.05
2023-05-19T12:55:16.662Z,24.01
2023-05-19T12:57:51.709Z,23.96
2023-05-19T13:00:25.651Z,24.00
2023-05-19T13:03:01.700Z,24.03
2023-05-19T13:05:30.489Z,24.02
2023-05-19T13:08:04.750Z,24.03
2023-05-19T13:10:33.329Z,24.03
2023-05-19T13:13:00.717Z,24.10
2023-05-19T13:15:34.596Z,24.20
2023-05-19T13:18:03.656Z,24.13
2023-05-19T13:20:30.757Z,23.96
2023-05-19T13:22:57.806Z,23.86
2023-05-19T13:25:24.793Z,23.97
2023-05-19T13:27:51.483Z,24.10
2023-05-19T13:30:19.442Z,24.10
2023-05-19T13:32:46.280Z,24.18
2023-05-19T13:35:16.630Z,24.19
2023-05-19T13:37:43.579Z,24.13
2023-05-19T13:40:10.774Z,24.05
2023-05-19T13:42:38.062Z,23.95
2023-05-19T13:45:05.355Z,23.89
2023-05-19T13:47:32.184Z,23.85
2023-05-19T13:49:58.965Z,23.88
2023-05-19T13:52:28.330Z,23.95
2023-05-19T13:54:57.439Z,24.10
2023-05-19T13:57:24.465Z,24.18
2023-05-19T14:00:01.707Z,24.23
2023-05-19T14:02:30.249Z,24.35
2023-05-19T14:04:57.568Z,24.32
2023-05-19T14:07:25.766Z,24.16
2023-05-19T14:09:53.012Z,24.03
2023-05-19T14:12:23.211Z,23.98
2023-05-19T14:14:52.166Z,23.95
2023-05-19T14:17:19.193Z,23.92
2023-05-19T14:19:46.052Z,23.88
2023-05-19T14:22:13.484Z,23.88
2023-05-19T14:24:41.593Z,23.89
2023-05-19T14:27:08.276Z,23.79
2023-05-19T14:29:35.494Z,23.64
2023-05-19T14:32:03.346Z,23.62
2023-05-19T14:34:30.456Z,23.57
2023-05-19T14:36:57.251Z,23.42
2023-05-19T14:39:23.932Z,23.28
2023-05-19T14:41:52.007Z,23.40
2023-05-19T14:44:18.845Z,23.55
2023-05-19T14:46:45.595Z,23.62
2023-05-19T14:49:12.270Z,23.58
2023-05-19T14:51:38.971Z,23.49
2023-05-19T14:54:05.644Z,23.33
2023-05-19T14:56:32.352Z,23.26
2023-05-19T14:58:59.071Z,23.22
2023-05-19T15:01:25.917Z,23.14
2023-05-19T15:03:52.782Z,23.00
2023-05-19T15:06:19.561Z,22.88
2023-05-19T15:08:46.487Z,22.89
2023-05-19T15:11:13.179Z,22.93
2023-05-19T15:13:39.910Z,23.04
2023-05-19T15:16:17.684Z,23.21
2023-05-19T15:18:45.039Z,23.32
2023-05-19T15:21:12.011Z,23.45
2023-05-19T15:23:38.789Z,23.50
2023-05-19T15:26:06.068Z,23.52
2023-05-19T15:28:33.637Z,23.62
2023-05-19T15:31:01.415Z,23.74
2023-05-19T15:33:28.208Z,23.82
2023-05-19T15:35:54.985Z,23.95
2023-05-19T15:38:21.756Z,24.07
2023-05-19T15:40:48.444Z,24.22
2023-05-19T15:43:15.232Z,24.26
2023-05-19T15:45:41.942Z,24.22
2023-05-19T15:48:08.844Z,24.28
2023-05-19T15:50:36.125Z,24.39
2023-05-19T15:53:03.443Z,24.41
2023-05-19T15:55:30.212Z,24.40
2023-05-19T15:57:56.921Z,24.32
2023-05-19T16:00:23.726Z,24.16
2023-05-19T16:02:50.697Z,24.02
2023-05-19T16:05:17.798Z,23.89
2023-05-19T16:07:45.086Z,23.74
2023-05-19T16:10:12.253Z,23.60
2023-05-19T16:12:38.977Z,23.57
2023-05-19T16:15:06.177Z,23.49
2023-05-19T16:17:33.028Z,23.44
2023-05-19T16:19:59.737Z,23.33
2023-05-19T16:22:27.232Z,23.30
2023-05-19T16:24:54.011Z,23.26
2023-05-19T16:27:20.738Z,23.23
2023-05-19T16:29:47.437Z,23.13
2023-05-19T16:32:14.240Z,23.12
2023-05-19T16:34:41.171Z,23.16
2023-05-19T16:37:07.894Z,23.12
2023-05-19T16:39:37.121Z,23.04
2023-05-19T16:42:04.792Z,22.98
2023-05-19T16:44:31.730Z,22.91
2023-05-19T16:46:58.407Z,23.04
2023-05-19T16:49:25.191Z,23.05
2023-05-19T16:51:53.200Z,22.91
2023-05-19T16:54:20.984Z,22.72
2023-05-19T16:56:47.846Z,22.70
2023-05-19T16:59:14.558Z,22.87
2023-05-19T17:01:41.550Z,23.00
2023-05-19T17:04:08.464Z,22.94
2023-05-19T17:06:35.241Z,22.68
2023-05-19T17:09:02.186Z,22.47
2023-05-19T17:11:29.025Z,22.20
2023-05-19T17:13:55.738Z,21.96
2023-05-19T17:16:23.542Z,21.67
2023-05-19T17:18:50.446Z,21.40
2023-05-19T17:21:17.779Z,21.16
2023-05-19T17:23:44.581Z,21.02
2023-05-19T17:26:11.578Z,20.99
2023-05-19T17:28:38.371Z,20.95
2023-05-19T17:31:12.347Z,21.05
2023-05-19T17:33:39.713Z,21.12
2023-05-19T17:36:07.531Z,21.12
2023-05-19T17:38:34.799Z,20.98
2023-05-19T17:41:02.579Z,20.82
2023-05-19T17:43:29.387Z,20.60
2023-05-19T17:45:56.815Z,20.45
2023-05-19T17:48:25.957Z,20.20
2023-05-19T17:50:52.618Z,20.00
2023-05-19T17:53:19.884Z,19.88
2023-05-19T17:55:51.548Z,19.81
2023-05-19T17:58:19.262Z,19.82
2023-05-19T18:00:46.227Z,19.80
2023-05-19T18:03:13.302Z,19.68
2023-05-19T18:05:40.619Z,19.54
2023-05-19T18:08:09.397Z,19.40
2023-05-19T18:10:38.098Z,19.30
2023-05-19T18:13:05.921Z,19.13
2023-05-19T18:15:33.030Z,18.92
2023-05-19T18:18:00.344Z,18.70
2023-05-19T18:20:27.178Z,18.40
2023-05-19T18:22:53.895Z,18.09
2023-05-19T18:25:20.937Z,17.78
2023-05-19T18:27:47.871Z,17.55
2023-05-19T18:30:14.645Z,17.36
2023-05-19T18:32:41.588Z,17.17
2023-05-19T18:35:09.375Z,16.97
2023-05-19T18:37:36.467Z,16.79
2023-05-19T18:40:03.212Z,16.65
2023-05-19T18:42:30.100Z,16.51
2023-05-19T18:44:56.900Z,16.44
2023-05-19T18:47:23.588Z,16.35
2023-05-19T18:49:52.593Z,16.25
2023-05-19T18:52:19.932Z,16.15
2023-05-19T18:54:47.540Z,16.06
2023-05-19T18:57:14.933Z,16.00
2023-05-19T18:59:41.773Z,15.93
2023-05-19T19:02:08.432Z,15.89
2023-05-19T19:04:35.259Z,15.82
2023-05-19T19:07:02.006Z,15.74
2023-05-19T19:09:28.651Z,15.63
2023-05-19T19:11:55.478Z,15.45
2023-05-19T19:14:23.432Z,15.29
2023-05-19T19:16:50.266Z,15.24
2023-05-19T19:19:17.388Z,15.21
2023-05-19T19:21:44.326Z,15.21
2023-05-19T19:24:11.206Z,15.23
2023-05-19T19:26:38.371Z,15.16
2023-05-19T19:29:05.110Z,15.12
2023-05-19T19:31:33.355Z,15.12
2023-05-19T19:34:03.738Z,15.13
2023-05-19T19:36:31.908Z,15.13
2023-05-19T19:38:58.907Z,15.11
2023-05-19T19:41:26.750Z,15.06
2023-05-19T19:43:54.404Z,15.09
2023-05-19T19:46:21.338Z,15.05
2023-05-19T19:48:49.611Z,14.96
2023-05-19T19:51:16.476Z,14.91
2023-05-19T19:53:43.192Z,14.87
2023-05-19T19:56:09.858Z,14.81
2023-05-19T19:58:36.823Z,14.79
2023-05-19T20:01:04.234Z,14.72
2023-05-19T20:03:31.826Z,14.60
2023-05-19T20:05:59.173Z,14.54
2023-05-19T20:08:26.900Z,14.47
2023-05-19T20:10:53.949Z,14.49
2023-05-19T20:13:20.784Z,14.44
2023-05-19T20:15:47.891Z,14.44
2023-05-19T20:18:14.652Z,14.38
2023-05-19T20:20:41.986Z,14.36
2023-05-19T20:23:08.859Z,14.30
2023-05-19T20:25:53.662Z,14.20
2023-05-19T20:28:28.450Z,14.10
2023-05-19T20:30:55.097Z,14.11
2023-05-19T20:33:21.813Z,14.06
2023-05-19T20:35:50.041Z,14.05
2023-05-19T20:38:16.779Z,14.03
2023-05-19T20:40:43.484Z,14.01
2023-05-19T20:43:10.269Z,13.96
2023-05-19T20:45:37.152Z,13.92
2023-05-19T20:48:04.420Z,13.85
2023-05-19T20:50:32.197Z,13.82
2023-05-19T20:52:59.000Z,13.82
2023-05-19T20:55:25.919Z,13.80
2023-05-19T20:57:52.607Z,13.78
2023-05-19T21:00:19.374Z,13.74
2023-05-19T21:02:46.132Z,13.65
2023-05-19T21:05:12.922Z,13.52
2023-05-19T21:07:39.644Z,13.41
2023-05-19T21:10:07.113Z,13.32
2023-05-19T21:12:34.352Z,13.20
2023-05-19T21:15:01.992Z,13.09
2023-05-19T21:17:28.899Z,13.01
2023-05-19T21:19:58.217Z,12.88
2023-05-19T21:22:26.664Z,12.86
2023-05-19T21:24:56.864Z,12.82
2023-05-19T21:27:23.609Z,12.74
2023-05-19T21:29:54.268Z,12.66
2023-05-19T21:32:21.662Z,12.63
2023-05-19T21:34:48.428Z,12.63
2023-05-19T21:37:17.298Z,12.62
2023-05-19T21:39:44.402Z,12.60
2023-05-19T21:42:11.153Z,12.55
2023-05-19T21:44:38.160Z,12.53
2023-05-19T21:47:05.146Z,12.53
2023-05-19T21:49:31.830Z,12.51
2023-05-19T21:51:58.654Z,12.45
2023-05-19T21:54:25.416Z,12.37
2023-05-19T21:56:52.193Z,12.30
2023-05-19T21:59:19.569Z,12.28
2023-05-19T22:01:46.844Z,12.27
2023-05-19T22:04:16.439Z,12.21
2023-05-19T22:06:43.350Z,12.16
2023-05-19T22:09:10.163Z,12.12
2023-05-19T22:11:36.856Z,12.07
2023-05-19T22:14:03.510Z,12.01
2023-05-19T22:16:31.213Z,12.00
2023-05-19T22:18:58.198Z,11.97
2023-05-19T22:21:24.952Z,11.94
2023-05-19T22:23:52.449Z,11.93
2023-05-19T22:26:19.159Z,11.90
2023-05-19T22:28:45.810Z,11.85
2023-05-19T22:31:12.504Z,11.80
2023-05-19T22:33:39.182Z,11.69
2023-05-19T22:36:06.476Z,11.58
2023-05-19T22:38:33.185Z,11.54
2023-05-19T22:40:59.887Z,11.50
2023-05-19T22:43:26.535Z,11.52
2023-05-19T22:45:53.378Z,11.52
2023-05-19T22:48:20.098Z,11.50
2023-05-19T22:50:46.876Z,11.48
2023-05-19T22:53:13.550Z,11.47
2023-05-19T22:55:40.765Z,11.47
2023-05-19T22:58:07.531Z,11.49
2023-05-19T23:00:34.254Z,11.47
2023-05-19T23:03:01.092Z,11.30
2023-05-19T23:05:27.889Z,11.25
2023-05-19T23:07:54.643Z,11.20
2023-05-19T23:10:21.367Z,11.20
2023-05-19T23:12:48.921Z,11.18
2023-05-19T23:15:15.838Z,11.17
2023-05-19T23:17:42.524Z,11.11
2023-05-19T23:20:09.789Z,11.06
2023-05-19T23:22:36.445Z,11.02
2023-05-19T23:25:07.692Z,11.03
2023-05-19T23:27:35.871Z,10.98
2023-05-19T23:30:03.297Z,10.94
2023-05-19T23:32:30.147Z,10.88
2023-05-19T23:34:56.812Z,10.84
2023-05-19T23:37:23.507Z,10.80
2023-05-19T23:39:50.566Z,10.77
2023-05-19T23:42:17.352Z,10.73
2023-05-19T23:44:44.040Z,10.65
2023-05-19T23:47:10.774Z,10.63
2023-05-19T23:49:37.532Z,10.62
2023-05-19T23:52:04.281Z,10.64
2023-05-19T23:54:31.120Z,10.60
2023-05-19T23:56:58.545Z,10.59
2023-05-19T23:59:25.400Z,10.59
